createdAt,value
2023-01-12T00:03:11.539Z,5.30
2023-01-12T00:08:13.034Z,5.18
2023-01-12T00:13:14.540Z,5.00
2023-01-12T00:18:18.552Z,3.88
2023-01-12T00:23:21.752Z,6.97
2023-01-12T00:28:23.283Z,5.18
2023-01-12T00:33:24.810Z,5.45
2023-01-12T00:38:26.591Z,4.75
2023-01-12T00:43:46.417Z,5.53
2023-01-12T00:48:47.948Z,5.47
2023-01-12T00:53:49.448Z,6.05
2023-01-12T00:58:50.960Z,5.05
2023-01-12T01:03:52.482Z,6.28
2023-01-12T01:08:54.154Z,4.90
2023-01-12T01:13:55.692Z,6.20
2023-01-12T01:18:58.156Z,5.70
2023-01-12T01:24:00.295Z,7.13
2023-01-12T01:29:01.777Z,5.72
2023-01-12T01:34:03.379Z,5.40
2023-01-12T01:39:05.481Z,5.50
2023-01-12T01:44:29.544Z,5.15
2023-01-12T01:49:48.198Z,5.55
2023-01-12T01:54:58.141Z,5.75
2023-01-12T02:00:00.576Z,6.97
2023-01-12T02:05:02.700Z,8.23
2023-01-12T02:10:04.742Z,7.43
2023-01-12T02:15:25.874Z,6.75
2023-01-12T02:20:41.116Z,6.32
2023-01-12T02:26:07.158Z,7.55
2023-01-12T02:31:22.123Z,7.70
2023-01-12T02:36:48.620Z,8.80
2023-01-12T02:42:23.963Z,8.98
2023-01-12T02:47:38.507Z,7.40
2023-01-12T02:52:45.755Z,7.38
2023-01-12T02:57:47.370Z,6.45
2023-01-12T03:02:50.600Z,8.50
2023-01-12T03:08:02.266Z,5.55
2023-01-12T03:13:08.227Z,4.75
2023-01-12T03:18:21.023Z,5.05
2023-01-12T03:23:49.519Z,5.10
2023-01-12T03:28:56.463Z,4.22
2023-01-12T03:33:58.965Z,3.93
2023-01-12T03:39:14.187Z,4.22
2023-01-12T03:44:23.764Z,4.10
2023-01-12T03:49:32.045Z,4.55
2023-01-12T03:54:36.988Z,4.18
2023-01-12T03:59:38.690Z,4.25
2023-01-12T04:04:40.184Z,3.35
2023-01-12T04:09:41.661Z,2.83
2023-01-12T04:14:47.955Z,3.28
2023-01-12T04:19:49.743Z,4.15
2023-01-12T04:24:51.592Z,3.75
2023-01-12T04:29:53.223Z,2.83
2023-01-12T04:34:54.738Z,3.00
2023-01-12T04:39:56.313Z,2.72
2023-01-12T04:44:57.862Z,2.50
2023-01-12T04:49:59.393Z,2.47
2023-01-12T04:55:01.145Z,2.60
2023-01-12T05:00:04.951Z,2.20
2023-01-12T05:05:08.539Z,2.17
2023-01-12T05:10:22.966Z,1.40
2023-01-12T05:15:24.496Z,1.60
2023-01-12T05:20:25.982Z,1.05
2023-01-12T05:25:29.092Z,1.25
2023-01-12T05:30:31.998Z,1.02
2023-01-12T05:35:33.694Z,1.40
2023-01-12T05:40:35.204Z,2.15
2023-01-12T05:45:37.018Z,3.00
2023-01-12T05:50:38.562Z,3.78
2023-01-12T05:55:40.050Z,3.55
2023-01-12T06:00:41.570Z,4.50
2023-01-12T06:05:43.118Z,5.50
2023-01-12T06:10:45.416Z,5.60
2023-01-12T06:15:47.013Z,5.07
2023-01-12T06:20:48.948Z,6.60
2023-01-12T06:25:50.433Z,6.93
2023-01-12T06:31:02.028Z,6.60
2023-01-12T06:36:04.234Z,6.53
2023-01-12T06:41:08.784Z,7.90
2023-01-12T06:46:10.324Z,6.18
2023-01-12T06:51:11.849Z,8.20
2023-01-12T06:56:13.337Z,5.95
2023-01-12T07:01:14.990Z,7.50
2023-01-12T07:06:16.677Z,8.90
2023-01-12T07:11:18.455Z,7.90
2023-01-12T07:16:19.985Z,6.22
2023-01-12T07:21:22.110Z,7.22
2023-01-12T07:26:23.647Z,7.03
2023-01-12T07:31:25.243Z,7.15
2023-01-12T07:36:26.855Z,6.22
2023-01-12T07:41:47.137Z,4.88
2023-01-12T07:46:48.685Z,7.00
2023-01-12T07:51:53.255Z,6.00
2023-01-12T07:56:54.825Z,5.32
2023-01-12T08:01:56.442Z,5.53
2023-01-12T08:06:58.063Z,6.03
2023-01-12T08:11:59.610Z,6.45
2023-01-12T08:17:03.196Z,5.53
2023-01-12T08:22:09.685Z,5.93
2023-01-12T08:27:11.541Z,5.47
2023-01-12T08:32:17.912Z,5.60
2023-01-12T08:37:22.657Z,6.40
2023-01-12T08:42:27.331Z,5.00
2023-01-12T08:47:30.478Z,4.32
2023-01-12T08:52:32.982Z,4.85
2023-01-12T08:57:34.503Z,5.40
2023-01-12T09:02:36.126Z,5.70
2023-01-12T09:07:39.723Z,3.72
2023-01-12T09:12:41.338Z,4.75
2023-01-12T09:17:44.451Z,4.82
2023-01-12T09:22:45.966Z,5.90
2023-01-12T09:27:47.436Z,5.28
2023-01-12T09:32:48.989Z,4.80
2023-01-12T09:37:50.447Z,5.15
2023-01-12T09:43:11.177Z,5.28
2023-01-12T09:48:14.064Z,7.10
2023-01-12T09:53:25.877Z,5.75
2023-01-12T09:58:42.120Z,6.28
2023-01-12T10:03:43.885Z,5.78
2023-01-12T10:09:04.317Z,4.82
2023-01-12T10:14:32.969Z,6.10
2023-01-12T10:20:03.261Z,5.65
2023-01-12T10:25:30.518Z,5.05
2023-01-12T10:30:35.024Z,4.95
2023-01-12T10:35:36.575Z,5.40
2023-01-12T10:40:38.073Z,5.32
2023-01-12T10:45:41.403Z,4.60
2023-01-12T10:50:42.933Z,5.10
2023-01-12T10:55:45.328Z,4.78
2023-01-12T11:00:49.084Z,3.95
2023-01-12T11:05:50.788Z,5.18
2023-01-12T11:10:52.369Z,5.50
2023-01-12T11:16:19.451Z,6.65
2023-01-12T11:21:29.497Z,6.18
2023-01-12T11:27:02.487Z,6.15
2023-01-12T11:32:10.560Z,6.35
2023-01-12T11:37:14.173Z,6.38
2023-01-12T11:42:39.784Z,6.75
2023-01-12T11:47:47.403Z,6.68
2023-01-12T11:58:05.126Z,5.68
2023-01-12T12:03:15.549Z,6.55
2023-01-12T12:08:39.905Z,6.28
2023-01-12T12:14:03.628Z,6.95
2023-01-12T12:19:35.560Z,7.43
2023-01-12T12:25:24.460Z,6.88
2023-01-12T12:30:54.889Z,6.25
2023-01-12T12:36:17.248Z,7.10
2023-01-12T12:42:00.659Z,6.38
2023-01-12T12:47:31.776Z,5.55
2023-01-12T12:52:35.580Z,5.57
2023-01-12T12:57:59.873Z,5.55
2023-01-12T13:03:01.571Z,6.75
2023-01-12T13:08:03.251Z,5.00
2023-01-12T13:13:23.943Z,5.32
2023-01-12T13:18:43.798Z,4.38
2023-01-12T13:23:48.941Z,4.25
2023-01-12T13:29:28.933Z,4.90
2023-01-12T13:34:39.365Z,5.40
2023-01-12T13:40:09.179Z,4.38
2023-01-12T13:45:19.896Z,4.35
2023-01-12T13:50:23.972Z,3.88
2023-01-12T13:55:28.842Z,4.95
2023-01-12T14:00:33.005Z,3.63
2023-01-12T14:05:52.113Z,3.72
2023-01-12T14:11:19.779Z,5.47
2023-01-12T14:16:41.058Z,3.33
2023-01-12T14:21:44.163Z,4.93
2023-01-12T14:26:45.822Z,3.60
2023-01-12T14:31:50.390Z,3.88
2023-01-12T14:36:52.101Z,3.45
2023-01-12T14:42:13.941Z,3.65
2023-01-12T14:47:36.398Z,4.15
2023-01-12T14:52:37.972Z,3.60
2023-01-12T14:57:39.662Z,2.95
2023-01-12T15:02:41.636Z,2.95
2023-01-12T15:08:12.494Z,2.92
2023-01-12T15:13:29.157Z,3.60
2023-01-12T15:18:49.024Z,3.45
2023-01-12T15:24:09.370Z,2.90
2023-01-12T15:29:10.911Z,3.10
2023-01-12T15:34:12.498Z,2.60
2023-01-12T15:39:14.654Z,2.22
2023-01-12T15:44:21.306Z,1.90
2023-01-12T15:49:22.787Z,1.90
2023-01-12T15:54:24.877Z,2.40
2023-01-12T15:59:26.547Z,2.15
2023-01-12T16:04:42.570Z,2.40
2023-01-12T16:09:49.791Z,1.80
2023-01-12T16:14:51.437Z,1.70
2023-01-12T16:19:53.023Z,2.10
2023-01-12T16:24:56.234Z,1.85
2023-01-12T16:29:57.924Z,1.80
2023-01-12T16:34:59.452Z,2.10
2023-01-12T16:40:01.296Z,2.25
2023-01-12T16:45:03.496Z,2.13
2023-01-12T16:50:05.522Z,2.10
2023-01-12T16:55:07.140Z,1.92
2023-01-12T17:00:09.422Z,2.40
2023-01-12T17:05:11.061Z,2.60
2023-01-12T17:10:12.717Z,2.80
2023-01-12T17:15:14.467Z,2.30
2023-01-12T17:20:16.659Z,3.60
2023-01-12T17:25:18.723Z,2.92
2023-01-12T17:30:22.361Z,2.83
2023-01-12T17:35:24.136Z,3.10
2023-01-12T17:40:27.281Z,4.55
2023-01-12T17:45:29.170Z,3.42
2023-01-12T17:50:30.775Z,3.50
2023-01-12T17:55:36.767Z,3.25
2023-01-12T18:00:38.543Z,4.05
2023-01-12T18:05:42.466Z,3.40
2023-01-12T18:10:44.125Z,4.20
2023-01-12T18:15:46.155Z,4.13
2023-01-12T18:20:52.193Z,4.50
2023-01-12T18:25:53.711Z,4.63
2023-01-12T18:31:08.580Z,4.35
2023-01-12T18:36:13.033Z,5.90
2023-01-12T18:41:33.719Z,4.60
2023-01-12T18:46:57.890Z,4.60
2023-01-12T18:52:18.657Z,4.03
2023-01-12T18:57:23.902Z,4.15
2023-01-12T19:02:25.905Z,4.55
2023-01-12T19:07:31.160Z,4.85
2023-01-12T19:12:33.726Z,4.40
2023-01-12T19:17:37.041Z,4.30
2023-01-12T19:22:57.440Z,3.97
2023-01-12T19:28:17.801Z,4.50
2023-01-12T19:33:19.320Z,4.13
2023-01-12T19:38:20.844Z,3.83
2023-01-12T19:43:27.072Z,3.28
2023-01-12T19:48:29.421Z,4.93
2023-01-12T19:53:30.973Z,4.38
2023-01-12T19:58:33.823Z,3.78
2023-01-12T20:03:36.228Z,3.67
2023-01-12T20:08:37.846Z,3.00
2023-01-12T20:13:39.418Z,3.55
2023-01-12T20:18:43.526Z,4.15
2023-01-12T20:23:45.220Z,4.45
2023-01-12T20:28:46.759Z,4.15
2023-01-12T20:33:48.352Z,4.63
2023-01-12T20:38:51.405Z,5.97
2023-01-12T20:43:52.992Z,5.68
2023-01-12T20:48:54.525Z,4.32
2023-01-12T20:53:57.639Z,4.88
2023-01-12T20:59:00.257Z,4.72
2023-01-12T21:04:01.780Z,4.20
2023-01-12T21:09:04.572Z,3.65
2023-01-12T21:14:06.072Z,4.78
2023-01-12T21:19:07.818Z,4.07
2023-01-12T21:24:10.614Z,4.57
2023-01-12T21:29:12.159Z,4.22
2023-01-12T21:34:13.669Z,4.30
2023-01-12T21:39:15.250Z,4.45
2023-01-12T21:44:16.862Z,4.60
2023-01-12T21:49:18.425Z,3.42
2023-01-12T21:54:19.975Z,4.57
2023-01-12T21:59:21.446Z,6.18
2023-01-12T22:04:23.252Z,4.32
2023-01-12T22:09:24.854Z,4.55
2023-01-12T22:14:26.356Z,6.22
2023-01-12T22:19:27.997Z,5.68
2023-01-12T22:24:29.529Z,6.20
2023-01-12T22:29:31.275Z,7.05
2023-01-12T22:34:32.749Z,6.45
2023-01-12T22:39:34.290Z,7.50
2023-01-12T22:44:35.842Z,8.05
2023-01-12T22:49:37.366Z,6.85
2023-01-12T22:54:38.978Z,6.03
2023-01-12T22:59:41.599Z,6.95
2023-01-12T23:04:43.065Z,6.80
2023-01-12T23:09:44.664Z,7.60
2023-01-12T23:14:46.280Z,6.78
2023-01-12T23:19:47.742Z,7.43
2023-01-12T23:24:49.381Z,6.90
2023-01-12T23:29:50.853Z,7.50
2023-01-12T23:34:52.325Z,8.18
2023-01-12T23:39:53.795Z,8.60
2023-01-12T23:44:55.257Z,9.95
2023-01-12T23:49:57.369Z,8.43
2023-01-12T23:54:58.870Z,9.48
